createdAt,value
2022-08-02T00:00:12.207Z,49.26
2022-08-02T00:02:39.084Z,49.19
2022-08-02T00:05:06.585Z,49.31
2022-08-02T00:07:39.005Z,49.16
2022-08-02T00:10:09.420Z,49.73
2022-08-02T00:12:37.977Z,49.81
2022-08-02T00:15:07.196Z,49.48
2022-08-02T00:17:34.086Z,49.72
2022-08-02T00:20:02.088Z,49.63
2022-08-02T00:22:30.272Z,49.01
2022-08-02T00:24:57.064Z,49.36
2022-08-02T00:27:23.930Z,49.52
2022-08-02T00:29:52.995Z,50.12
2022-08-02T00:32:22.386Z,49.97
2022-08-02T00:34:50.728Z,50.75
2022-08-02T00:37:17.582Z,50.75
2022-08-02T00:39:44.740Z,51.03
2022-08-02T00:42:15.116Z,51.53
2022-08-02T00:44:42.679Z,52.02
2022-08-02T00:47:09.842Z,51.77
2022-08-02T00:49:37.402Z,51.41
2022-08-02T00:52:05.287Z,51.34
2022-08-02T00:54:32.047Z,51.24
2022-08-02T00:56:58.904Z,51.18
2022-08-02T00:59:25.698Z,51.28
2022-08-02T01:01:57.440Z,51.40
2022-08-02T01:04:31.546Z,51.27
2022-08-02T01:07:12.802Z,50.46
2022-08-02T01:09:44.837Z,51.02
2022-08-02T01:12:13.038Z,51.62
2022-08-02T01:14:46.010Z,52.11
2022-08-02T01:17:44.484Z,51.98
2022-08-02T01:20:34.711Z,51.82
2022-08-02T01:23:45.421Z,52.76
2022-08-02T01:26:53.704Z,52.77
2022-08-02T01:29:34.349Z,52.58
2022-08-02T01:32:33.942Z,53.07
2022-08-02T01:35:11.742Z,52.84
2022-08-02T01:37:48.312Z,53.34
2022-08-02T01:40:22.966Z,53.59
2022-08-02T01:42:54.081Z,53.01
2022-08-02T01:45:26.803Z,53.10
2022-08-02T01:47:54.860Z,53.40
2022-08-02T01:50:26.728Z,53.25
2022-08-02T01:52:58.002Z,53.48
2022-08-02T01:55:57.894Z,53.96
2022-08-02T01:58:30.092Z,53.85
2022-08-02T02:00:58.352Z,54.43
2022-08-02T02:03:27.127Z,54.72
2022-08-02T02:05:57.500Z,54.68
2022-08-02T02:08:30.436Z,54.39
2022-08-02T02:12:11.409Z,54.10
2022-08-02T02:13:47.447Z,54.64
2022-08-02T02:16:15.721Z,54.28
2022-08-02T02:18:44.488Z,55.00
2022-08-02T02:21:13.325Z,55.07
2022-08-02T02:23:40.772Z,55.84
2022-08-02T02:26:12.989Z,55.96
2022-08-02T02:28:40.004Z,56.33
2022-08-02T02:31:09.969Z,56.10
2022-08-02T02:33:44.377Z,55.87
2022-08-02T02:36:12.018Z,55.70
2022-08-02T02:38:40.308Z,55.80
2022-08-02T02:41:07.276Z,56.60
2022-08-02T02:43:36.270Z,56.93
2022-08-02T02:46:05.366Z,57.16
2022-08-02T02:48:32.981Z,57.11
2022-08-02T02:51:03.372Z,57.04
2022-08-02T02:54:32.903Z,57.15
2022-08-02T02:56:18.709Z,56.69
2022-08-02T02:58:46.960Z,56.93
2022-08-02T03:01:56.363Z,56.83
2022-08-02T03:04:18.047Z,57.42
2022-08-02T03:06:45.098Z,57.35
2022-08-02T03:09:12.359Z,57.11
2022-08-02T03:11:40.813Z,57.34
2022-08-02T03:14:10.908Z,57.21
2022-08-02T03:16:51.692Z,56.80
2022-08-02T03:19:20.017Z,56.55
2022-08-02T03:21:48.522Z,56.45
2022-08-02T03:24:27.575Z,56.68
2022-08-02T03:26:55.671Z,57.32
2022-08-02T03:29:22.645Z,57.74
2022-08-02T03:31:50.230Z,57.75
2022-08-02T03:34:17.192Z,57.20
2022-08-02T03:36:45.656Z,57.38
2022-08-02T03:39:12.786Z,58.28
2022-08-02T03:41:41.200Z,58.16
2022-08-02T03:44:09.337Z,57.95
2022-08-02T03:46:39.548Z,57.81
2022-08-02T03:49:08.643Z,57.85
2022-08-02T03:51:35.840Z,58.90
2022-08-02T03:54:04.300Z,59.46
2022-08-02T03:56:32.012Z,59.08
2022-08-02T03:59:09.208Z,59.22
2022-08-02T04:01:35.982Z,58.75
2022-08-02T04:04:02.883Z,58.53
2022-08-02T04:06:29.593Z,58.22
2022-08-02T04:08:56.345Z,58.30
2022-08-02T04:11:31.985Z,58.65
2022-08-02T04:14:05.415Z,58.20
2022-08-02T04:16:54.439Z,57.69
2022-08-02T04:19:31.108Z,58.04
2022-08-02T04:22:01.797Z,58.13
2022-08-02T04:24:32.264Z,58.63
2022-08-02T04:27:06.499Z,58.85
2022-08-02T04:29:35.174Z,58.54
2022-08-02T04:32:03.449Z,58.23
2022-08-02T04:34:30.728Z,58.30
2022-08-02T04:36:58.779Z,58.74
2022-08-02T04:39:26.657Z,58.54
2022-08-02T04:41:57.607Z,58.96
2022-08-02T04:44:24.877Z,59.00
2022-08-02T04:46:52.731Z,59.34
2022-08-02T04:49:19.531Z,59.11
2022-08-02T04:51:46.311Z,58.81
2022-08-02T04:54:13.090Z,59.22
2022-08-02T04:56:40.697Z,59.40
2022-08-02T04:59:07.684Z,59.30
2022-08-02T05:01:35.638Z,58.84
2022-08-02T05:04:03.237Z,59.13
2022-08-02T05:06:29.964Z,59.76
2022-08-02T05:08:56.696Z,59.50
2022-08-02T05:11:34.509Z,59.54
2022-08-02T05:14:04.448Z,59.84
2022-08-02T05:16:32.339Z,59.30
2022-08-02T05:19:01.056Z,58.56
2022-08-02T05:21:28.016Z,58.41
2022-08-02T05:23:54.720Z,58.12
2022-08-02T05:26:21.471Z,58.06
2022-08-02T05:28:48.267Z,58.05
2022-08-02T05:31:15.045Z,58.14
2022-08-02T05:33:42.139Z,58.71
2022-08-02T05:36:09.521Z,58.37
2022-08-02T05:38:37.726Z,58.21
2022-08-02T05:41:07.827Z,58.11
2022-08-02T05:43:34.603Z,58.26
2022-08-02T05:46:01.480Z,57.43
2022-08-02T05:48:31.850Z,57.42
2022-08-02T05:51:38.878Z,57.76
2022-08-02T05:54:19.013Z,56.99
2022-08-02T05:56:48.987Z,56.71
2022-08-02T05:59:33.424Z,56.47
2022-08-02T06:02:04.811Z,56.34
2022-08-02T06:04:56.924Z,56.49
2022-08-02T06:07:24.426Z,56.22
2022-08-02T06:09:51.682Z,57.22
2022-08-02T06:12:19.665Z,56.45
2022-08-02T06:14:50.183Z,55.60
2022-08-02T06:17:19.824Z,56.46
2022-08-02T06:19:52.225Z,56.28
2022-08-02T06:22:40.270Z,56.30
2022-08-02T06:25:11.413Z,55.37
2022-08-02T06:27:40.337Z,55.21
2022-08-02T06:30:09.658Z,54.48
2022-08-02T06:32:36.537Z,53.92
2022-08-02T06:35:04.717Z,53.29
2022-08-02T06:37:46.774Z,53.04
2022-08-02T06:40:25.436Z,52.83
2022-08-02T06:43:03.103Z,53.34
2022-08-02T06:45:30.058Z,53.98
2022-08-02T06:47:56.811Z,54.03
2022-08-02T06:50:23.549Z,53.97
2022-08-02T06:52:50.264Z,53.62
2022-08-02T06:55:17.618Z,53.56
2022-08-02T06:57:44.524Z,53.33
2022-08-02T07:00:12.450Z,53.55
2022-08-02T07:02:42.590Z,53.17
2022-08-02T07:05:09.897Z,52.90
2022-08-02T07:07:39.944Z,52.65
2022-08-02T07:10:09.799Z,51.96
2022-08-02T07:12:37.355Z,51.95
2022-08-02T07:15:08.479Z,51.79
2022-08-02T07:17:35.783Z,51.59
2022-08-02T07:20:03.142Z,50.88
2022-08-02T07:22:31.083Z,50.02
2022-08-02T07:24:59.860Z,50.29
2022-08-02T07:27:28.193Z,49.52
2022-08-02T07:29:56.041Z,49.08
2022-08-02T07:32:25.752Z,48.73
2022-08-02T07:34:55.054Z,48.42
2022-08-02T07:37:53.961Z,48.22
2022-08-02T07:40:14.724Z,48.21
2022-08-02T07:42:52.331Z,47.91
2022-08-02T07:45:20.823Z,47.52
2022-08-02T07:47:47.757Z,46.78
2022-08-02T07:50:16.862Z,46.19
2022-08-02T07:52:44.801Z,45.99
2022-08-02T07:55:13.416Z,46.37
2022-08-02T07:57:45.798Z,45.63
2022-08-02T08:00:15.890Z,44.68
2022-08-02T08:02:43.079Z,45.28
2022-08-02T08:05:10.131Z,44.90
2022-08-02T08:07:36.861Z,44.53
2022-08-02T08:10:05.611Z,43.82
2022-08-02T08:12:32.305Z,43.33
2022-08-02T08:14:59.003Z,41.93
2022-08-02T08:17:26.143Z,41.44
2022-08-02T08:19:53.215Z,39.33
2022-08-02T08:22:21.040Z,40.00
2022-08-02T08:24:48.707Z,38.89
2022-08-02T08:27:16.929Z,40.03
2022-08-02T08:29:44.240Z,37.31
2022-08-02T08:32:16.008Z,38.00
2022-08-02T08:34:43.897Z,36.22
2022-08-02T08:37:17.906Z,35.86
2022-08-02T08:39:57.850Z,35.72
2022-08-02T08:42:30.575Z,35.83
2022-08-02T08:44:58.791Z,36.17
2022-08-02T08:47:47.762Z,36.14
2022-08-02T08:50:24.995Z,35.74
2022-08-02T08:53:04.102Z,35.03
2022-08-02T08:55:32.189Z,36.24
2022-08-02T08:58:00.376Z,35.32
2022-08-02T09:00:27.852Z,34.75
2022-08-02T09:02:55.033Z,35.23
2022-08-02T09:05:22.114Z,34.67
2022-08-02T09:07:50.827Z,34.83
2022-08-02T09:10:47.109Z,33.38
2022-08-02T09:13:45.485Z,34.15
2022-08-02T09:16:14.775Z,34.17
2022-08-02T09:18:50.311Z,33.14
2022-08-02T09:21:21.296Z,33.53
2022-08-02T09:23:49.793Z,33.08
2022-08-02T09:26:19.105Z,33.45
2022-08-02T09:28:51.664Z,33.86
2022-08-02T09:31:24.398Z,33.58
2022-08-02T09:33:55.139Z,34.69
2022-08-02T09:36:22.964Z,33.34
2022-08-02T09:39:00.097Z,34.11
2022-08-02T09:41:32.102Z,34.10
2022-08-02T09:44:03.249Z,33.29
2022-08-02T09:46:36.214Z,32.93
2022-08-02T09:49:09.480Z,32.16
2022-08-02T09:51:49.049Z,32.54
2022-08-02T09:54:28.567Z,33.47
2022-08-02T09:56:58.958Z,33.27
2022-08-02T09:59:26.985Z,32.31
2022-08-02T10:02:01.829Z,32.05
2022-08-02T10:04:52.543Z,32.10
2022-08-02T10:07:22.559Z,31.57
2022-08-02T10:09:51.367Z,32.17
2022-08-02T10:12:20.081Z,32.65
2022-08-02T10:14:50.294Z,32.45
2022-08-02T10:17:20.098Z,32.64
2022-08-02T10:20:02.189Z,32.60
2022-08-02T10:22:34.327Z,32.93
2022-08-02T10:25:03.608Z,32.82
2022-08-02T10:27:43.174Z,33.62
2022-08-02T10:30:16.055Z,32.96
2022-08-02T10:32:46.274Z,32.46
2022-08-02T10:35:25.164Z,32.34
2022-08-02T10:37:58.175Z,32.53
2022-08-02T10:40:26.549Z,33.43
2022-08-02T10:43:00.942Z,32.08
2022-08-02T10:45:28.551Z,32.92
2022-08-02T10:48:11.705Z,31.70
2022-08-02T10:50:47.974Z,31.68
2022-08-02T10:53:33.830Z,32.50
2022-08-02T10:56:04.734Z,32.02
2022-08-02T10:58:32.809Z,32.28
2022-08-02T11:01:06.303Z,31.58
2022-08-02T11:03:39.351Z,32.83
2022-08-02T11:06:25.636Z,32.26
2022-08-02T11:09:33.676Z,31.10
2022-08-02T11:12:14.778Z,32.39
2022-08-02T11:14:45.043Z,31.80
2022-08-02T11:17:12.906Z,31.05
2022-08-02T11:20:11.087Z,31.26
2022-08-02T11:22:42.709Z,31.18
2022-08-02T11:25:24.770Z,33.06
2022-08-02T11:27:52.812Z,32.99
2022-08-02T11:30:26.523Z,33.42
2022-08-02T11:32:58.481Z,33.00
2022-08-02T11:35:40.068Z,32.10
2022-08-02T11:38:21.054Z,32.41
2022-08-02T11:40:49.100Z,31.93
2022-08-02T11:43:17.628Z,33.01
2022-08-02T11:45:44.836Z,33.01
2022-08-02T11:48:11.676Z,32.46
2022-08-02T11:50:38.549Z,33.18
2022-08-02T11:53:17.553Z,31.62
2022-08-02T11:55:44.763Z,31.65
2022-08-02T11:58:11.927Z,30.88
2022-08-02T12:00:39.655Z,30.91
2022-08-02T12:03:07.611Z,32.23
2022-08-02T12:06:03.861Z,30.88
2022-08-02T12:08:25.220Z,32.29
2022-08-02T12:10:53.268Z,32.30
2022-08-02T12:13:20.011Z,33.03
2022-08-02T12:15:47.343Z,33.11
2022-08-02T12:18:35.967Z,32.88
2022-08-02T12:21:04.654Z,32.90
2022-08-02T12:23:31.684Z,32.42
2022-08-02T12:26:07.306Z,31.07
2022-08-02T12:28:36.347Z,32.09
2022-08-02T12:31:05.455Z,31.66
2022-08-02T12:33:47.499Z,30.50
2022-08-02T12:36:34.695Z,30.04
2022-08-02T12:39:01.584Z,29.61
2022-08-02T12:41:32.269Z,30.01
2022-08-02T12:44:00.304Z,30.63
2022-08-02T12:46:27.359Z,29.99
2022-08-02T12:49:16.490Z,29.91
2022-08-02T12:51:56.372Z,30.25
2022-08-02T12:54:30.794Z,30.40
2022-08-02T12:57:13.970Z,28.92
2022-08-02T12:59:42.846Z,29.16
2022-08-02T13:02:12.662Z,27.92
2022-08-02T13:04:41.585Z,28.23
2022-08-02T13:07:17.616Z,28.94
2022-08-02T13:09:45.944Z,28.92
2022-08-02T13:12:13.184Z,29.46
2022-08-02T13:14:41.955Z,28.24
2022-08-02T13:17:10.450Z,27.58
2022-08-02T13:19:38.437Z,27.86
2022-08-02T13:22:06.287Z,27.94
2022-08-02T13:24:40.759Z,27.84
2022-08-02T13:27:22.307Z,28.58
2022-08-02T13:29:50.226Z,28.53
2022-08-02T13:32:17.767Z,27.77
2022-08-02T13:34:44.573Z,27.22
2022-08-02T13:37:11.521Z,26.77
2022-08-02T13:39:38.473Z,26.84
2022-08-02T13:42:05.890Z,27.22
2022-08-02T13:44:33.627Z,26.19
2022-08-02T13:47:01.518Z,27.48
2022-08-02T13:49:50.820Z,27.12
2022-08-02T13:52:15.541Z,27.33
2022-08-02T13:54:42.713Z,26.60
2022-08-02T13:57:09.545Z,26.58
2022-08-02T13:59:56.996Z,26.18
2022-08-02T14:02:23.015Z,26.01
2022-08-02T14:04:49.888Z,26.71
2022-08-02T14:07:16.537Z,26.82
2022-08-02T14:09:43.632Z,26.07
2022-08-02T14:12:11.224Z,25.44
2022-08-02T14:14:38.607Z,25.61
2022-08-02T14:17:05.779Z,27.10
2022-08-02T14:19:32.697Z,25.11
2022-08-02T14:22:10.898Z,25.63
2022-08-02T14:24:40.146Z,24.31
2022-08-02T14:27:06.957Z,24.39
2022-08-02T14:29:33.833Z,24.16
2022-08-02T14:32:00.805Z,24.26
2022-08-02T14:34:28.392Z,24.02
2022-08-02T14:36:56.450Z,23.21
2022-08-02T14:39:23.190Z,22.86
2022-08-02T14:41:59.366Z,22.98
2022-08-02T14:44:28.864Z,23.33
2022-08-02T14:46:56.174Z,22.37
2022-08-02T14:49:25.902Z,22.39
2022-08-02T14:51:54.262Z,21.41
2022-08-02T14:54:28.129Z,22.11
2022-08-02T14:56:58.736Z,19.84
2022-08-02T14:59:25.674Z,18.51
2022-08-02T15:01:52.806Z,16.80
2022-08-02T15:04:19.562Z,15.29
2022-08-02T15:06:49.317Z,15.18
2022-08-02T15:09:16.637Z,16.33
2022-08-02T15:11:48.192Z,15.17
2022-08-02T15:14:20.320Z,15.21
2022-08-02T15:16:58.795Z,15.40
2022-08-02T15:19:47.002Z,18.81
2022-08-02T15:22:16.578Z,19.14
2022-08-02T15:24:46.078Z,18.82
2022-08-02T15:27:15.757Z,17.51
2022-08-02T15:29:44.398Z,17.83
2022-08-02T15:32:12.882Z,18.57
2022-08-02T15:34:40.586Z,17.19
2022-08-02T15:37:07.527Z,18.65
2022-08-02T15:39:34.235Z,17.20
2022-08-02T15:42:01.328Z,17.23
2022-08-02T15:44:28.289Z,17.86
2022-08-02T15:46:55.647Z,20.11
2022-08-02T15:49:23.939Z,22.32
2022-08-02T15:51:52.500Z,22.08
2022-08-02T15:54:19.915Z,22.45
2022-08-02T15:56:46.742Z,22.92
2022-08-02T15:59:13.718Z,23.13
2022-08-02T16:01:44.874Z,22.69
2022-08-02T16:04:16.672Z,23.51
2022-08-02T16:06:43.911Z,23.97
2022-08-02T16:09:11.076Z,23.04
2022-08-02T16:11:38.214Z,23.45
2022-08-02T16:14:05.739Z,23.60
2022-08-02T16:16:36.158Z,22.91
2022-08-02T16:19:47.940Z,23.50
2022-08-02T16:21:52.800Z,22.76
2022-08-02T16:24:20.205Z,23.17
2022-08-02T16:26:48.556Z,23.97
2022-08-02T16:29:18.838Z,24.02
2022-08-02T16:31:49.707Z,24.06
2022-08-02T16:34:17.509Z,24.08
2022-08-02T16:36:46.062Z,24.42
2022-08-02T16:39:13.202Z,23.87
2022-08-02T16:41:50.585Z,23.48
2022-08-02T16:44:29.671Z,24.41
2022-08-02T16:47:01.487Z,25.65
2022-08-02T16:50:05.518Z,25.47
2022-08-02T16:52:19.071Z,25.50
2022-08-02T16:54:49.878Z,25.60
2022-08-02T16:57:19.670Z,25.02
2022-08-02T16:59:57.720Z,25.54
2022-08-02T17:02:28.640Z,25.55
2022-08-02T17:04:55.686Z,25.65
2022-08-02T17:08:07.318Z,24.68
2022-08-02T17:10:10.501Z,26.16
2022-08-02T17:12:39.000Z,25.50
2022-08-02T17:16:01.361Z,25.44
2022-08-02T17:17:54.430Z,26.16
2022-08-02T17:20:21.404Z,25.82
2022-08-02T17:22:51.468Z,26.17
2022-08-02T17:25:18.364Z,25.93
2022-08-02T17:27:46.161Z,25.74
2022-08-02T17:30:13.947Z,25.64
2022-08-02T17:32:45.521Z,26.34
2022-08-02T17:35:15.703Z,26.60
2022-08-02T17:37:54.752Z,26.35
2022-08-02T17:40:27.132Z,26.27
2022-08-02T17:42:54.126Z,26.38
2022-08-02T17:45:25.758Z,26.36
2022-08-02T17:48:07.567Z,26.18
2022-08-02T17:50:35.659Z,26.37
2022-08-02T17:53:03.836Z,26.20
2022-08-02T17:55:31.413Z,26.60
2022-08-02T17:57:59.677Z,26.65
2022-08-02T18:00:34.640Z,26.88
2022-08-02T18:03:05.493Z,26.60
2022-08-02T18:05:39.802Z,26.96
2022-08-02T18:08:09.047Z,27.06
2022-08-02T18:10:35.770Z,26.86
2022-08-02T18:13:03.673Z,26.88
2022-08-02T18:15:32.631Z,27.13
2022-08-02T18:18:00.427Z,27.13
2022-08-02T18:20:27.273Z,27.13
2022-08-02T18:22:55.616Z,26.97
2022-08-02T18:25:37.330Z,26.70
2022-08-02T18:28:12.593Z,27.47
2022-08-02T18:30:39.397Z,26.92
2022-08-02T18:33:59.821Z,27.20
2022-08-02T18:38:42.945Z,27.17
2022-08-02T18:41:12.985Z,27.37
2022-08-02T18:43:43.618Z,27.17
2022-08-02T18:46:16.194Z,27.13
2022-08-02T18:48:46.443Z,27.89
2022-08-02T18:51:14.827Z,27.55
2022-08-02T18:53:42.792Z,27.83
2022-08-02T18:56:19.793Z,27.85
2022-08-02T18:58:58.514Z,27.97
2022-08-02T19:01:33.818Z,28.28
2022-08-02T19:04:04.602Z,28.84
2022-08-02T19:06:31.722Z,28.96
2022-08-02T19:09:05.857Z,29.32
2022-08-02T19:11:47.261Z,29.60
2022-08-02T19:14:24.316Z,29.71
2022-08-02T19:17:00.378Z,28.95
2022-08-02T19:19:44.086Z,27.47
2022-08-02T19:22:17.353Z,28.74
2022-08-02T19:25:01.050Z,28.99
2022-08-02T19:27:32.932Z,29.10
2022-08-02T19:30:02.269Z,29.23
2022-08-02T19:35:29.379Z,30.15
2022-08-02T19:38:09.151Z,30.15
2022-08-02T19:40:36.595Z,30.91
2022-08-02T19:44:26.590Z,30.33
2022-08-02T19:45:56.847Z,30.49
2022-08-02T19:48:25.413Z,30.34
2022-08-02T19:50:56.262Z,30.48
2022-08-02T19:53:29.118Z,29.94
2022-08-02T19:56:20.126Z,30.06
2022-08-02T19:58:47.816Z,29.97
2022-08-02T20:04:01.440Z,30.07
2022-08-02T20:06:29.820Z,29.85
2022-08-02T20:08:59.378Z,30.12
2022-08-02T20:11:29.090Z,30.35
2022-08-02T20:14:04.061Z,30.81
2022-08-02T20:16:32.737Z,30.29
2022-08-02T20:19:00.788Z,30.09
2022-08-02T20:21:35.895Z,29.99
2022-08-02T20:24:09.859Z,29.95
2022-08-02T20:26:47.062Z,30.19
2022-08-02T20:29:14.980Z,29.78
2022-08-02T20:31:44.311Z,30.39
2022-08-02T20:34:11.033Z,30.50
2022-08-02T20:36:39.417Z,30.48
2022-08-02T20:39:06.240Z,30.79
2022-08-02T20:41:37.062Z,30.77
2022-08-02T20:44:15.786Z,30.93
2022-08-02T20:46:56.604Z,31.49
2022-08-02T20:49:40.832Z,31.36
2022-08-02T20:52:23.659Z,31.63
2022-08-02T20:54:51.876Z,31.69
2022-08-02T20:57:18.681Z,31.75
2022-08-02T20:59:45.382Z,31.74
2022-08-02T21:02:19.306Z,32.14
2022-08-02T21:04:47.148Z,32.34
2022-08-02T21:07:17.763Z,32.92
2022-08-02T21:09:52.849Z,32.78
2022-08-02T21:12:22.030Z,32.64
2022-08-02T21:14:57.237Z,33.01
2022-08-02T21:17:33.552Z,32.94
2022-08-02T21:20:11.268Z,33.18
2022-08-02T21:22:38.620Z,33.13
2022-08-02T21:25:08.942Z,33.39
2022-08-02T21:27:52.936Z,33.76
2022-08-02T21:30:24.416Z,33.66
2022-08-02T21:32:54.731Z,33.69
2022-08-02T21:35:24.707Z,33.92
2022-08-02T21:37:57.916Z,33.88
2022-08-02T21:40:25.211Z,34.04
2022-08-02T21:42:53.910Z,34.18
2022-08-02T21:45:20.836Z,33.97
2022-08-02T21:47:48.532Z,34.33
2022-08-02T21:50:16.359Z,34.15
2022-08-02T21:52:52.271Z,34.37
2022-08-02T21:55:24.111Z,34.46
2022-08-02T21:58:06.520Z,34.65
2022-08-02T22:00:34.328Z,34.85
2022-08-02T22:03:01.023Z,34.54
2022-08-02T22:05:47.732Z,35.21
2022-08-02T22:08:14.478Z,35.24
2022-08-02T22:11:01.803Z,35.04
2022-08-02T22:13:38.662Z,34.61
2022-08-02T22:16:14.622Z,35.21
2022-08-02T22:18:51.376Z,35.12
2022-08-02T22:21:20.128Z,35.11
2022-08-02T22:23:50.412Z,35.08
2022-08-02T22:26:18.855Z,35.27
2022-08-02T22:28:51.746Z,35.07
2022-08-02T22:31:40.470Z,35.08
2022-08-02T22:34:11.801Z,34.70
2022-08-02T22:36:54.882Z,35.33
2022-08-02T22:39:21.786Z,35.63
2022-08-02T22:42:01.761Z,35.36
2022-08-02T22:44:33.741Z,35.72
2022-08-02T22:47:07.061Z,36.27
2022-08-02T22:52:29.899Z,36.71
2022-08-02T22:54:56.824Z,36.77
2022-08-02T22:57:30.667Z,36.05
2022-08-02T22:58:44.950Z,27.57
2022-08-02T22:58:54.158Z,30.10
2022-08-02T22:58:58.841Z,29.76
2022-08-02T22:59:59.950Z,36.13
2022-08-02T23:02:27.507Z,35.85
2022-08-02T23:04:54.927Z,35.98
2022-08-02T23:07:21.874Z,36.31
2022-08-02T23:09:48.663Z,36.15
2022-08-02T23:12:19.142Z,36.25
2022-08-02T23:14:47.290Z,36.50
2022-08-02T23:17:32.873Z,36.78
2022-08-02T23:19:59.691Z,37.13
2022-08-02T23:22:29.821Z,37.63
2022-08-02T23:25:00.716Z,37.72
2022-08-02T23:27:27.947Z,37.80
2022-08-02T23:29:54.699Z,38.35
2022-08-02T23:32:22.799Z,38.68
2022-08-02T23:34:52.500Z,38.64
2022-08-02T23:37:19.335Z,38.51
2022-08-02T23:39:46.596Z,38.60
2022-08-02T23:42:13.903Z,38.80
2022-08-02T23:44:40.668Z,39.28
2022-08-02T23:47:07.679Z,39.94
2022-08-02T23:49:34.536Z,40.22
2022-08-02T23:52:02.134Z,39.33
2022-08-02T23:54:29.204Z,39.36
2022-08-02T23:56:56.084Z,39.32
2022-08-02T23:59:22.861Z,39.51
